Time;durP1;ratioP1;P1;durP2;ratioP2;P2;SDS_P1;SDS_P2;PMS_P1;PMS_P2;Temp;Humidity;BMP_temperature;BMP_pressure;BME280_temperature;BME280_humidity;BME280_pressure;Samples;Min_cycle;Max_cycle;Signal;HPM_P1;HPM_P2
2022/04/06 05:10:37;;;;;;;12.67;8.20;;;9.40;99.90;;;;;;5034346;28;20469;-74
2022/04/06 05:13:05;;;;;;;13.00;9.93;;;9.40;99.90;;;;;;5026217;28;20466;-74
2022/04/06 05:15:32;;;;;;;12.43;9.60;;;9.40;99.90;;;;;;5026481;28;20462;-74
2022/04/06 05:17:59;;;;;;;10.50;9.40;;;9.40;99.90;;;;;;5025979;28;20461;-74
2022/04/06 05:20:26;;;;;;;10.53;9.33;;;9.40;99.90;;;;;;5025781;28;20502;-73
2022/04/06 05:22:53;;;;;;;9.70;8.70;;;9.40;99.90;;;;;;5028884;28;20462;-79
2022/04/06 05:25:20;;;;;;;14.33;9.17;;;9.50;99.90;;;;;;5041986;28;20530;-80
2022/04/06 05:27:50;;;;;;;10.30;8.90;;;9.40;99.90;;;;;;5045001;28;20461;-79
2022/04/06 05:30:18;;;;;;;13.77;9.50;;;9.40;99.90;;;;;;5046654;28;20553;-79
2022/04/06 05:32:46;;;;;;;10.23;9.20;;;9.40;99.90;;;;;;5047841;28;20454;-79
2022/04/06 05:35:13;;;;;;;11.37;9.70;;;9.50;99.90;;;;;;5046241;28;20464;-78
2022/04/06 05:37:42;;;;;;;11.67;9.40;;;9.50;99.90;;;;;;5041714;28;20513;-78
2022/04/06 05:40:11;;;;;;;10.60;9.50;;;9.50;99.90;;;;;;5035878;28;20456;-78
2022/04/06 05:42:38;;;;;;;12.00;9.47;;;9.50;99.90;;;;;;5036149;28;20489;-79
2022/04/06 05:45:08;;;;;;;10.30;9.27;;;9.40;99.90;;;;;;5035118;28;20509;-78
2022/04/06 05:47:37;;;;;;;12.03;10.83;;;9.40;99.90;;;;;;5035879;28;20460;-78
2022/04/06 05:50:05;;;;;;;12.50;10.13;;;9.40;99.90;;;;;;5036300;28;20457;-79
2022/04/06 05:52:32;;;;;;;13.63;10.50;;;9.40;99.90;;;;;;5035597;28;20485;-79
2022/04/06 05:54:59;;;;;;;11.23;10.13;;;9.40;99.90;;;;;;5036569;28;20460;-79
2022/04/06 05:57:26;;;;;;;13.57;11.07;;;9.40;99.90;;;;;;5034847;28;20460;-78
2022/04/06 05:59:53;;;;;;;13.20;9.80;;;9.40;99.90;;;;;;5032779;28;20460;-78
2022/04/06 06:02:23;;;;;;;14.33;9.80;;;9.40;99.90;;;;;;5035063;28;20509;-78
2022/04/06 06:04:50;;;;;;;15.23;9.83;;;9.50;99.90;;;;;;5033398;28;20449;-78
2022/04/06 06:07:20;;;;;;;12.83;10.10;;;9.50;99.90;;;;;;5031403;28;20445;-79
2022/04/06 06:09:47;;;;;;;12.60;10.00;;;9.50;99.90;;;;;;5033246;28;20454;-80
2022/04/06 06:12:14;;;;;;;14.70;10.23;;;9.60;99.90;;;;;;5032875;28;20490;-79
2022/04/06 06:14:42;;;;;;;12.40;10.70;;;9.60;99.90;;;;;;5032730;28;20827;-79
2022/04/06 06:17:09;;;;;;;14.40;9.90;;;9.60;99.90;;;;;;5031371;28;20454;-78
2022/04/06 06:19:37;;;;;;;14.70;10.47;;;9.70;99.90;;;;;;5031931;28;20481;-79
2022/04/06 06:22:04;;;;;;;12.30;11.00;;;9.70;99.90;;;;;;5034267;28;20600;-80
2022/04/06 06:24:32;;;;;;;12.17;10.13;;;9.70;99.90;;;;;;5037670;28;20442;-79
2022/04/06 06:26:59;;;;;;;13.37;10.20;;;9.70;99.90;;;;;;5037425;28;20992;-80
2022/04/06 06:29:26;;;;;;;11.90;10.07;;;9.80;99.90;;;;;;5038347;28;20456;-79
2022/04/06 06:31:54;;;;;;;12.30;10.27;;;9.70;99.90;;;;;;5037713;28;20475;-80
2022/04/06 06:34:21;;;;;;;13.47;10.03;;;9.80;99.90;;;;;;5037353;28;20465;-79
2022/04/06 06:36:49;;;;;;;14.93;10.27;;;9.70;99.90;;;;;;5037610;28;20511;-79
2022/04/06 06:39:17;;;;;;;11.30;9.40;;;9.80;99.90;;;;;;5037076;28;20482;-79
2022/04/06 06:41:43;;;;;;;12.30;9.30;;;9.80;99.90;;;;;;5037155;28;20523;-80
2022/04/06 06:44:11;;;;;;;8.60;7.70;;;9.80;99.90;;;;;;5039309;28;20449;-80
2022/04/06 06:46:38;;;;;;;13.53;9.00;;;9.80;99.90;;;;;;5029397;28;20454;-79
2022/04/06 06:49:04;;;;;;;10.67;9.07;;;9.80;99.90;;;;;;5017091;28;20622;-79
2022/04/06 06:51:32;;;;;;;13.30;9.40;;;9.80;99.90;;;;;;5018096;28;20561;-79
2022/04/06 06:54:00;;;;;;;12.23;8.37;;;9.90;99.90;;;;;;5018964;28;20439;-79
2022/04/06 06:56:28;;;;;;;13.97;7.93;;;9.90;99.90;;;;;;5029807;28;20517;-79
2022/04/06 06:58:55;;;;;;;9.67;8.67;;;10.00;99.90;;;;;;5038382;28;20526;-79
2022/04/06 07:01:23;;;;;;;10.37;9.20;;;10.00;99.90;;;;;;5034464;28;20582;-79
2022/04/06 07:03:49;;;;;;;11.77;9.23;;;10.00;99.90;;;;;;5040524;28;20541;-79
2022/04/06 07:06:16;;;;;;;12.53;8.63;;;10.00;99.90;;;;;;5037556;28;20445;-79
2022/04/06 07:08:43;;;;;;;10.27;8.13;;;10.10;99.90;;;;;;5037754;28;20492;-79
2022/04/06 07:11:12;;;;;;;11.93;8.90;;;10.10;99.90;;;;;;5032473;28;20521;-79
2022/04/06 07:13:38;;;;;;;12.53;8.90;;;10.10;99.90;;;;;;5038967;28;20450;-79
2022/04/06 07:16:06;;;;;;;9.77;8.73;;;10.20;99.90;;;;;;5040197;28;20469;-79
2022/04/06 07:18:33;;;;;;;11.93;9.57;;;10.20;99.90;;;;;;5034142;28;20511;-79
2022/04/06 07:21:00;;;;;;;9.00;8.10;;;10.20;99.90;;;;;;5033532;28;20503;-79
2022/04/06 07:23:27;;;;;;;9.87;8.30;;;10.20;99.90;;;;;;5035600;28;20509;-79
2022/04/06 07:25:54;;;;;;;11.07;9.07;;;10.20;99.90;;;;;;5028244;28;20970;-79
2022/04/06 07:28:22;;;;;;;11.47;8.87;;;10.30;99.90;;;;;;5014943;28;20488;-79
2022/04/06 07:30:49;;;;;;;8.83;7.93;;;10.30;99.90;;;;;;5016234;28;20467;-79
2022/04/06 07:33:16;;;;;;;9.07;7.73;;;10.30;99.90;;;;;;5015278;28;20554;-78
2022/04/06 07:35:43;;;;;;;10.67;8.07;;;10.30;99.90;;;;;;5015423;28;21038;-79
2022/04/06 07:38:12;;;;;;;9.03;8.03;;;10.30;99.90;;;;;;5016163;28;20451;-79
2022/04/06 07:40:40;;;;;;;8.70;7.60;;;10.30;99.90;;;;;;5016651;28;20565;-79
2022/04/06 07:43:08;;;;;;;9.50;7.80;;;10.30;99.90;;;;;;5016953;28;20463;-78
2022/04/06 07:45:36;;;;;;;8.87;6.67;;;10.30;99.90;;;;;;5017527;28;20483;-79
2022/04/06 07:48:04;;;;;;;9.90;7.30;;;10.40;99.90;;;;;;5015719;28;20526;-79
2022/04/06 07:50:31;;;;;;;7.50;6.80;;;10.40;99.90;;;;;;5017000;28;20455;-80
2022/04/06 07:52:58;;;;;;;11.10;8.03;;;10.40;99.90;;;;;;5018287;28;20458;-79
2022/04/06 07:55:25;;;;;;;9.73;7.43;;;10.50;99.90;;;;;;5019381;28;20501;-79
2022/04/06 07:57:52;;;;;;;6.50;5.90;;;10.50;99.90;;;;;;5017843;28;20469;-79
2022/04/06 08:00:19;;;;;;;9.67;7.60;;;10.50;99.90;;;;;;5016518;28;20490;-79
2022/04/06 08:02:48;;;;;;;9.27;7.83;;;10.60;99.90;;;;;;5016437;28;20526;-79
2022/04/06 08:05:15;;;;;;;7.90;7.07;;;10.50;99.90;;;;;;5015463;28;20541;-78
2022/04/06 08:07:43;;;;;;;8.60;6.53;;;10.50;99.90;;;;;;5013870;28;20451;-78
2022/04/06 08:10:11;;;;;;;7.87;5.80;;;10.50;99.90;;;;;;5015518;28;20465;-78
2022/04/06 08:12:38;;;;;;;7.27;5.40;;;10.50;99.90;;;;;;5017787;28;20550;-79
2022/04/06 08:15:06;;;;;;;5.63;4.17;;;10.50;99.90;;;;;;5055183;28;20923;-78
2022/04/06 08:17:34;;;;;;;7.77;5.60;;;10.50;99.90;;;;;;5054184;28;20536;-79
2022/04/06 08:20:03;;;;;;;6.37;4.70;;;10.50;99.90;;;;;;5055103;28;20448;-79
2022/04/06 08:22:30;;;;;;;4.73;4.10;;;10.60;99.90;;;;;;5034275;28;20502;-79
2022/04/06 08:24:57;;;;;;;4.60;4.17;;;10.60;99.90;;;;;;5036780;28;20462;-79
2022/04/06 08:27:24;;;;;;;5.83;4.13;;;10.60;99.90;;;;;;5035052;28;20546;-79
2022/04/06 08:29:51;;;;;;;4.43;3.07;;;10.60;99.90;;;;;;5015484;28;20459;-79
2022/04/06 08:32:19;;;;;;;6.03;3.40;;;10.60;99.90;;;;;;5015083;28;20501;-79
2022/04/06 08:34:46;;;;;;;5.10;3.47;;;10.50;99.90;;;;;;5014891;28;20463;-79
2022/04/06 08:37:14;;;;;;;3.70;3.00;;;10.60;99.90;;;;;;5014321;28;20456;-79
2022/04/06 08:39:41;;;;;;;3.63;3.33;;;10.60;99.90;;;;;;5017103;28;20461;-79
2022/04/06 08:42:08;;;;;;;4.00;2.90;;;10.60;99.90;;;;;;5033558;28;20931;-79
2022/04/06 08:44:35;;;;;;;5.47;3.20;;;10.60;99.90;;;;;;5056054;28;20583;-79
2022/04/06 08:47:06;;;;;;;4.87;3.50;;;10.70;99.90;;;;;;5033896;28;20449;-79
2022/04/06 08:49:35;;;;;;;5.47;4.33;;;10.70;99.90;;;;;;5027270;28;20460;-79
2022/04/06 08:52:04;;;;;;;4.33;3.90;;;10.80;99.90;;;;;;5047864;28;20475;-79
2022/04/06 08:54:33;;;;;;;5.00;3.87;;;10.80;99.90;;;;;;5056349;28;20468;-79
2022/04/06 08:57:00;;;;;;;4.67;4.27;;;11.00;99.90;;;;;;5053852;28;20456;-79
2022/04/06 08:59:26;;;;;;;5.27;4.07;;;11.00;99.90;;;;;;5055142;28;20452;-79
2022/04/06 09:01:53;;;;;;;4.90;3.83;;;11.00;99.90;;;;;;5052952;28;20497;-79
2022/04/06 09:04:21;;;;;;;5.70;3.90;;;11.00;99.90;;;;;;5055390;28;20878;-79
2022/04/06 09:06:48;;;;;;;3.90;3.60;;;11.00;99.90;;;;;;5055350;28;20483;-79
2022/04/06 09:09:22;;;;;;;4.60;3.80;;;11.10;99.90;;;;;;5055368;28;20460;-78
2022/04/06 09:11:51;;;;;;;3.87;3.43;;;11.10;99.90;;;;;;5052878;28;20481;-79
2022/04/06 09:14:30;;;;;;;4.90;3.60;;;11.10;99.90;;;;;;5055104;28;20464;-79
2022/04/06 09:17:02;;;;;;;5.33;3.57;;;11.10;99.90;;;;;;5054654;28;20459;-79
2022/04/06 09:19:29;;;;;;;6.07;4.00;;;11.20;99.90;;;;;;5056184;28;20819;-79
2022/04/06 09:21:56;;;;;;;3.57;3.10;;;11.20;99.90;;;;;;5055751;28;20539;-79
2022/04/06 09:24:25;;;;;;;3.20;2.90;;;11.20;99.90;;;;;;5056361;28;20453;-79
2022/04/06 09:26:59;;;;;;;3.00;2.70;;;11.20;99.90;;;;;;5055621;28;20535;-79
2022/04/06 09:29:27;;;;;;;5.33;3.03;;;11.20;99.90;;;;;;5054717;28;20444;-79
2022/04/06 09:31:54;;;;;;;2.77;2.50;;;11.30;99.90;;;;;;5053698;28;20483;-79
2022/04/06 09:34:22;;;;;;;3.70;3.27;;;11.30;99.90;;;;;;5055165;28;20464;-79
2022/04/06 09:36:56;;;;;;;3.30;2.90;;;11.40;99.90;;;;;;5055743;28;20436;-78
2022/04/06 09:39:42;;;;;;;3.30;2.53;;;11.40;99.90;;;;;;5064700;28;20433;-79
2022/04/06 09:42:10;;;;;;;2.30;2.10;;;11.50;99.90;;;;;;5063837;28;20492;-79
2022/04/06 09:47:40;;;;;;;2.17;1.97;;;12.00;99.90;;;;;;5062461;28;20431;-77
2022/04/06 09:50:12;;;;;;;2.27;2.07;;;12.20;99.90;;;;;;5060552;28;20444;-79
2022/04/06 09:52:39;;;;;;;1.90;1.80;;;12.40;99.90;;;;;;5059901;28;20514;-79
2022/04/06 09:55:09;;;;;;;2.93;2.23;;;12.50;99.90;;;;;;5060187;28;20477;-78
2022/04/06 09:57:42;;;;;;;2.50;1.47;;;12.60;99.90;;;;;;5062881;28;20564;-78
2022/04/06 10:00:11;;;;;;;2.17;1.97;;;12.70;99.90;;;;;;5063546;28;20445;-78
2022/04/06 10:02:38;;;;;;;1.50;1.40;;;12.70;99.90;;;;;;5065455;28;20491;-78
2022/04/06 10:05:06;;;;;;;1.63;1.33;;;12.70;99.90;;;;;;5056403;28;20464;-78
2022/04/06 10:07:34;;;;;;;1.50;1.40;;;12.70;99.90;;;;;;5053492;28;20477;-78
2022/04/06 10:10:02;;;;;;;3.43;1.37;;;12.70;99.90;;;;;;5055363;28;20457;-78
2022/04/06 10:12:29;;;;;;;3.27;1.53;;;12.80;99.90;;;;;;5054798;28;20495;-79
2022/04/06 10:15:00;;;;;;;5.03;1.50;;;12.90;99.90;;;;;;5053762;28;20504;-79
2022/04/06 10:17:28;;;;;;;1.40;1.20;;;13.10;99.90;;;;;;5051015;28;20472;-79
2022/04/06 10:20:03;;;;;;;1.20;1.10;;;13.30;99.90;;;;;;5049863;28;20452;-78
2022/04/06 10:22:36;;;;;;;1.33;1.23;;;13.60;99.90;;;;;;5053826;28;20566;-79
2022/04/06 10:25:11;;;;;;;2.00;1.40;;;13.60;99.90;;;;;;5056357;28;21118;-79
2022/04/06 10:27:42;;;;;;;1.30;1.20;;;13.70;99.90;;;;;;5055794;28;20461;-79
2022/04/06 10:30:13;;;;;;;1.20;1.10;;;13.70;99.90;;;;;;5055596;28;20520;-79
2022/04/06 10:32:41;;;;;;;1.10;1.00;;;13.80;99.90;;;;;;5055806;28;20448;-80
2022/04/06 10:35:33;;;;;;;1.10;1.00;;;13.90;99.90;;;;;;5039569;28;20572;-79
2022/04/06 10:38:20;;;;;;;1.40;1.30;;;13.80;99.90;;;;;;5014986;28;20462;-77
2022/04/06 10:41:06;;;;;;;1.30;1.20;;;13.90;99.90;;;;;;5035679;28;20521;-79
2022/04/06 10:43:50;;;;;;;1.50;1.30;;;14.00;99.90;;;;;;5035167;28;20569;-79
2022/04/06 10:46:33;;;;;;;1.33;1.20;;;14.10;99.90;;;;;;5023596;28;20932;-79
2022/04/06 10:49:12;;;;;;;1.20;1.10;;;14.30;99.90;;;;;;5021433;28;20458;-79
2022/04/06 10:51:41;;;;;;;2.30;1.40;;;14.20;99.90;;;;;;5034335;28;20476;-79
2022/04/06 10:54:42;;;;;;;1.23;1.13;;;14.20;99.90;;;;;;5028953;28;20465;-79
2022/04/06 10:57:09;;;;;;;1.03;1.00;;;14.10;99.90;;;;;;5035054;28;20462;-80
2022/04/06 10:59:36;;;;;;;3.30;1.20;;;14.10;99.90;;;;;;5037744;28;20596;-80
2022/04/06 11:02:19;;;;;;;1.67;1.33;;;14.20;99.90;;;;;;5036349;28;20563;-79
2022/04/06 11:04:47;;;;;;;1.57;1.27;;;14.40;99.90;;;;;;5036330;28;20517;-79
2022/04/06 11:10:06;;;;;;;1.13;1.03;;;14.60;99.90;;;;;;5037060;28;20458;-80
2022/04/06 11:10:12;;;;;;;2.10;0.97;;;14.70;99.90;;;;;;5039136;28;20458;-81
2022/04/06 11:12:57;;;;;;;4.67;1.43;;;14.90;99.90;;;;;;5042616;28;20937;-80
2022/04/06 11:15:34;;;;;;;2.23;1.30;;;15.00;99.90;;;;;;5043327;28;20453;-80
2022/04/06 11:18:02;;;;;;;1.17;1.00;;;15.00;99.90;;;;;;5040435;28;20515;-78
2022/04/06 11:20:33;;;;;;;1.10;1.00;;;15.00;99.90;;;;;;5041611;28;20505;-79
2022/04/06 11:23:01;;;;;;;1.03;0.90;;;14.90;99.90;;;;;;5040998;28;20497;-79
2022/04/06 11:25:29;;;;;;;1.23;1.13;;;15.00;99.90;;;;;;5041620;28;20485;-81
2022/04/06 11:28:06;;;;;;;1.57;0.80;;;15.10;99.90;;;;;;5039789;28;20475;-81
2022/04/06 11:30:34;;;;;;;1.30;1.00;;;15.10;99.90;;;;;;5040083;28;20503;-81
2022/04/06 11:33:04;;;;;;;1.10;0.80;;;15.20;99.90;;;;;;5042430;28;20450;-81
2022/04/06 11:35:32;;;;;;;0.93;0.83;;;15.50;99.90;;;;;;5042583;28;20441;-80
2022/04/06 11:37:59;;;;;;;1.90;1.10;;;15.60;99.90;;;;;;5038745;28;20488;-80
2022/04/06 11:40:27;;;;;;;0.70;0.60;;;15.70;99.90;;;;;;5035603;28;20454;-80
2022/04/06 11:42:55;;;;;;;0.73;0.73;;;15.80;99.90;;;;;;5037563;28;20505;-81
2022/04/06 11:45:23;;;;;;;2.60;0.90;;;16.00;99.90;;;;;;5035866;28;20525;-79
2022/04/06 11:47:54;;;;;;;0.80;0.80;;;16.10;99.90;;;;;;5032993;28;20537;-80
2022/04/06 11:50:28;;;;;;;0.77;0.70;;;16.10;99.90;;;;;;5038095;28;20458;-80
2022/04/06 11:52:55;;;;;;;1.17;0.80;;;16.10;99.90;;;;;;5038795;28;20537;-78
2022/04/06 11:55:39;;;;;;;0.90;0.80;;;16.00;99.90;;;;;;5037067;28;20460;-80
2022/04/06 11:58:06;;;;;;;4.10;1.10;;;16.00;99.90;;;;;;5034123;28;20486;-80
2022/04/06 12:00:34;;;;;;;0.80;0.80;;;16.00;99.90;;;;;;5039181;28;20478;-80
2022/04/06 12:03:02;;;;;;;6.20;1.40;;;16.00;99.90;;;;;;5039890;28;20589;-80
2022/04/06 12:05:33;;;;;;;1.60;1.13;;;15.90;99.90;;;;;;5040940;28;20495;-80
2022/04/06 12:08:12;;;;;;;0.80;0.80;;;16.00;99.90;;;;;;5042729;28;20458;-81
2022/04/06 12:10:49;;;;;;;7.87;2.07;;;16.10;99.90;;;;;;5048687;28;20465;-79
2022/04/06 12:13:17;;;;;;;1.80;1.00;;;16.30;99.90;;;;;;5048669;28;20459;-81
2022/04/06 12:15:44;;;;;;;1.20;1.10;;;16.40;99.90;;;;;;5048162;28;20426;-80
2022/04/06 12:18:11;;;;;;;2.10;0.93;;;16.50;99.90;;;;;;5046966;28;20450;-81
2022/04/06 12:20:40;;;;;;;1.00;0.90;;;16.50;99.90;;;;;;5046577;28;20492;-81
2022/04/06 12:23:09;;;;;;;1.07;0.90;;;16.60;99.90;;;;;;5037271;28;20518;-79
2022/04/06 12:25:37;;;;;;;1.40;0.90;;;16.70;99.90;;;;;;5038216;28;20450;-79
2022/04/06 12:28:15;;;;;;;1.10;1.00;;;16.80;99.90;;;;;;5035593;28;20474;-80
2022/04/06 12:30:57;;;;;;;1.80;0.90;;;16.80;99.90;;;;;;5035571;28;20488;-80
2022/04/06 12:33:48;;;;;;;1.00;0.80;;;16.90;99.90;;;;;;5036104;28;20516;-79
2022/04/06 12:36:19;;;;;;;1.93;1.10;;;17.00;99.90;;;;;;5020900;28;20458;-79
2022/04/06 12:39:02;;;;;;;1.10;1.00;;;17.20;99.90;;;;;;5035473;28;20458;-79
2022/04/06 12:41:32;;;;;;;0.80;0.80;;;17.00;99.90;;;;;;5025019;28;20861;-70
2022/04/06 12:44:00;;;;;;;2.90;1.00;;;17.00;99.90;;;;;;5026580;28;20501;-69
2022/04/06 12:46:41;;;;;;;1.73;1.20;;;16.70;99.90;;;;;;5026357;28;20464;-70
2022/04/06 12:49:19;;;;;;;1.27;0.83;;;16.60;99.90;;;;;;5026525;28;20449;-69
2022/04/06 12:51:47;;;;;;;1.90;1.23;;;16.50;99.90;;;;;;5026063;28;20479;-70
2022/04/06 12:54:16;;;;;;;1.20;0.93;;;16.40;99.90;;;;;;5026656;28;20898;-68
2022/04/06 12:57:05;;;;;;;3.40;1.00;;;16.40;99.90;;;;;;5026468;28;20552;-68
2022/04/06 12:59:37;;;;;;;0.90;0.90;;;16.50;99.90;;;;;;5026992;28;21174;-69
2022/04/06 13:02:05;;;;;;;1.00;0.90;;;16.50;99.90;;;;;;5026819;28;20485;-69
2022/04/06 13:04:32;;;;;;;1.50;1.10;;;16.50;99.90;;;;;;5026681;28;20494;-69
2022/04/06 13:07:00;;;;;;;3.77;1.13;;;16.50;99.90;;;;;;5024747;28;20464;-70
2022/04/06 13:09:27;;;;;;;2.40;0.90;;;16.70;99.90;;;;;;5026280;28;20560;-69
2022/04/06 13:11:54;;;;;;;0.83;0.80;;;16.80;99.90;;;;;;5026788;28;20478;-68
2022/04/06 13:14:23;;;;;;;0.80;0.80;;;16.80;99.90;;;;;;5026421;28;20528;-69
2022/04/06 13:16:50;;;;;;;1.20;0.90;;;16.80;99.90;;;;;;5025918;28;20954;-69
2022/04/06 13:19:17;;;;;;;2.87;0.80;;;16.90;99.90;;;;;;5026349;28;20453;-68
2022/04/06 13:21:44;;;;;;;1.30;1.20;;;17.00;99.90;;;;;;5025751;28;20993;-69
2022/04/06 13:24:12;;;;;;;1.30;0.90;;;17.30;99.90;;;;;;5026309;28;20498;-68
2022/04/06 13:26:39;;;;;;;1.97;1.10;;;17.40;99.90;;;;;;5025671;28;20536;-69
2022/04/06 13:29:08;;;;;;;1.67;1.03;;;17.60;99.90;;;;;;5026048;28;20493;-68
2022/04/06 13:31:39;;;;;;;1.60;1.13;;;17.60;99.90;;;;;;5026054;28;20508;-68
2022/04/06 13:34:06;;;;;;;1.60;1.07;;;17.80;99.90;;;;;;5025837;28;21027;-69
2022/04/06 13:36:33;;;;;;;1.93;0.80;;;17.80;99.90;;;;;;5025294;28;20473;-69
2022/04/06 13:39:00;;;;;;;1.60;0.90;;;17.90;99.90;;;;;;5026437;28;20458;-68
2022/04/06 13:41:28;;;;;;;0.93;0.80;;;17.80;99.90;;;;;;5026059;28;20473;-69
2022/04/06 13:43:55;;;;;;;3.83;1.00;;;17.60;99.90;;;;;;5027155;28;20874;-69
2022/04/06 13:46:22;;;;;;;1.00;0.93;;;17.50;99.90;;;;;;5026068;28;20458;-69
2022/04/06 13:48:49;;;;;;;1.43;0.93;;;17.50;99.90;;;;;;5027099;28;20500;-69
2022/04/06 13:51:17;;;;;;;1.70;1.00;;;17.50;99.90;;;;;;5026293;28;21001;-69
2022/04/06 13:53:44;;;;;;;4.33;1.20;;;17.50;99.90;;;;;;5027015;28;20454;-69
2022/04/06 13:56:10;;;;;;;1.17;1.07;;;17.50;99.90;;;;;;5026252;28;21170;-69
2022/04/06 13:58:39;;;;;;;3.53;0.87;;;17.40;99.90;;;;;;5025900;28;20465;-70
2022/04/06 14:01:06;;;;;;;2.60;0.90;;;17.40;99.90;;;;;;5026359;28;20476;-69
2022/04/06 14:03:33;;;;;;;0.90;0.80;;;17.50;99.90;;;;;;5030874;28;20588;-78
2022/04/06 14:06:00;;;;;;;1.23;1.03;;;17.70;99.90;;;;;;5032130;28;20457;-78
2022/04/06 14:08:27;;;;;;;1.07;0.97;;;17.70;99.90;;;;;;5030375;28;20449;-77
2022/04/06 14:10:54;;;;;;;3.70;0.93;;;17.70;99.90;;;;;;5027881;28;20469;-78
2022/04/06 14:13:22;;;;;;;1.10;0.80;;;17.80;99.90;;;;;;5030179;28;20462;-78
2022/04/06 14:15:50;;;;;;;1.20;1.10;;;17.90;99.90;;;;;;5031319;28;20477;-78
2022/04/06 14:18:18;;;;;;;1.67;0.97;;;18.10;99.90;;;;;;5029415;28;20461;-77
2022/04/06 14:20:45;;;;;;;3.90;1.10;;;18.20;99.90;;;;;;5028547;28;20482;-77
2022/04/06 14:23:12;;;;;;;1.00;0.90;;;18.10;99.90;;;;;;5029242;28;20867;-78
2022/04/06 14:25:41;;;;;;;1.90;1.17;;;18.20;99.90;;;;;;5031429;28;20488;-77
2022/04/06 14:28:09;;;;;;;2.03;0.93;;;18.30;99.90;;;;;;5031082;28;20466;-78
2022/04/06 14:30:36;;;;;;;1.30;1.10;;;18.50;99.90;;;;;;5032059;28;20474;-78
2022/04/06 14:33:05;;;;;;;1.40;1.00;;;18.60;99.90;;;;;;5030204;28;20494;-78
2022/04/06 14:35:33;;;;;;;1.20;1.10;;;18.70;99.90;;;;;;5030383;28;20453;-77
2022/04/06 14:38:00;;;;;;;2.03;1.20;;;18.80;99.90;;;;;;5028917;28;20556;-78
2022/04/06 14:40:27;;;;;;;1.83;1.00;;;18.60;99.90;;;;;;5031067;28;20841;-78
2022/04/06 14:42:54;;;;;;;1.50;1.10;;;18.40;99.90;;;;;;5031247;28;20445;-78
2022/04/06 14:45:21;;;;;;;2.40;1.10;;;18.30;99.90;;;;;;5033045;28;20524;-76
2022/04/06 14:47:48;;;;;;;7.37;1.40;;;18.40;99.90;;;;;;5035057;28;20881;-78
2022/04/06 14:50:16;;;;;;;1.10;1.00;;;18.40;99.90;;;;;;5035576;28;20449;-77
2022/04/06 14:52:45;;;;;;;1.50;1.10;;;18.40;99.90;;;;;;5035286;28;20491;-77
2022/04/06 14:55:13;;;;;;;2.13;1.27;;;18.40;99.90;;;;;;5034902;28;20457;-77
2022/04/06 14:57:40;;;;;;;3.63;1.57;;;18.30;99.90;;;;;;5033637;28;20457;-77
2022/04/06 15:00:08;;;;;;;3.27;2.30;;;18.20;99.90;;;;;;5034993;28;20461;-77
2022/04/06 15:02:35;;;;;;;3.53;1.90;;;18.30;99.90;;;;;;5027036;28;20523;-77
2022/04/06 15:05:03;;;;;;;1.80;1.17;;;18.40;99.90;;;;;;5034358;28;20489;-77
2022/04/06 15:07:33;;;;;;;5.93;1.40;;;18.40;99.90;;;;;;5034307;28;21076;-77
2022/04/06 15:10:00;;;;;;;1.37;1.20;;;18.40;99.90;;;;;;5032363;28;20954;-77
2022/04/06 15:12:27;;;;;;;1.03;0.93;;;18.20;99.90;;;;;;5034052;28;20481;-77
2022/04/06 15:14:53;;;;;;;2.70;1.30;;;18.10;99.90;;;;;;5033229;28;20457;-77
2022/04/06 15:17:20;;;;;;;2.73;1.70;;;18.30;99.90;;;;;;5033148;28;20486;-77
2022/04/06 15:19:47;;;;;;;1.30;1.20;;;18.40;99.90;;;;;;5033492;28;20482;-77
2022/04/06 15:22:14;;;;;;;1.00;0.90;;;18.30;99.90;;;;;;5033306;28;20474;-77
2022/04/06 15:24:42;;;;;;;1.80;1.10;;;18.10;99.90;;;;;;5038010;28;20608;-78
2022/04/06 15:27:09;;;;;;;1.40;1.30;;;18.00;99.90;;;;;;5039835;28;20537;-79
2022/04/06 15:29:36;;;;;;;1.53;1.40;;;17.70;99.90;;;;;;5040298;28;20537;-78
2022/04/06 15:32:04;;;;;;;1.60;1.20;;;17.60;99.90;;;;;;5041162;28;20513;-78
2022/04/06 15:37:22;;;;;;;1.50;1.07;;;17.50;99.90;;;;;;5041744;28;20442;-78
2022/04/06 15:39:52;;;;;;;1.77;1.50;;;17.60;99.90;;;;;;5042423;28;20461;-79
2022/04/06 15:42:24;;;;;;;1.50;1.40;;;17.60;99.90;;;;;;5042845;28;20477;-78
2022/04/06 15:44:54;;;;;;;1.70;1.60;;;17.60;99.90;;;;;;5043169;28;20912;-78
2022/04/06 15:47:21;;;;;;;2.40;1.17;;;17.60;99.90;;;;;;5042019;28;20486;-78
2022/04/06 15:49:48;;;;;;;7.20;4.00;;;17.70;99.90;;;;;;5041056;28;20446;-78
2022/04/06 15:52:15;;;;;;;3.40;3.10;;;17.80;99.90;;;;;;5041572;28;20481;-79
2022/04/06 15:54:43;;;;;;;2.20;1.60;;;18.00;99.90;;;;;;5041096;28;20438;-78
2022/04/06 15:57:13;;;;;;;2.10;1.40;;;18.20;99.90;;;;;;5038751;28;20442;-78
2022/04/06 15:59:40;;;;;;;1.37;1.20;;;18.20;99.90;;;;;;5041246;28;20457;-78
2022/04/06 16:02:07;;;;;;;1.77;1.30;;;18.30;99.90;;;;;;5040318;28;20498;-79
2022/04/06 16:04:34;;;;;;;1.73;1.27;;;18.10;99.90;;;;;;5041055;28;20493;-78
2022/04/06 16:07:01;;;;;;;2.00;1.63;;;18.00;99.90;;;;;;5038433;28;20454;-79
2022/04/06 16:09:28;;;;;;;1.47;1.37;;;17.80;99.90;;;;;;5040968;28;20449;-78
2022/04/06 16:11:55;;;;;;;1.10;0.90;;;17.70;99.90;;;;;;5041248;28;20517;-79
2022/04/06 16:14:24;;;;;;;2.80;1.60;;;17.50;99.90;;;;;;5041543;28;20500;-79
2022/04/06 16:16:52;;;;;;;1.80;1.50;;;17.40;99.90;;;;;;5039848;28;20486;-79
2022/04/06 16:19:19;;;;;;;5.63;1.90;;;17.20;99.90;;;;;;5040000;28;20505;-78
2022/04/06 16:21:46;;;;;;;3.70;1.80;;;17.00;99.90;;;;;;5039599;28;20545;-79
2022/04/06 16:24:13;;;;;;;2.00;1.70;;;16.80;99.90;;;;;;5034927;28;21031;-77
2022/04/06 16:26:40;;;;;;;3.20;1.93;;;16.70;99.90;;;;;;5029138;28;20536;-78
2022/04/06 16:29:08;;;;;;;2.33;1.77;;;16.60;99.90;;;;;;5029228;28;20500;-77
2022/04/06 16:31:37;;;;;;;3.77;1.90;;;16.50;99.90;;;;;;5029657;28;20478;-77
2022/04/06 16:34:05;;;;;;;2.50;1.77;;;16.40;99.90;;;;;;5030182;28;20561;-76
2022/04/06 16:36:35;;;;;;;2.20;2.00;;;16.30;99.90;;;;;;5031503;28;20458;-77
2022/04/06 16:39:02;;;;;;;3.37;2.10;;;16.10;99.90;;;;;;5030648;28;21026;-77
2022/04/06 16:41:31;;;;;;;2.70;2.10;;;16.00;99.90;;;;;;5029128;28;20494;-80
2022/04/06 16:43:58;;;;;;;2.80;2.10;;;15.90;99.90;;;;;;5016028;28;20506;-80
2022/04/06 16:46:29;;;;;;;2.33;2.13;;;15.90;99.90;;;;;;5023151;28;20459;-81
2022/04/06 16:49:00;;;;;;;4.67;2.80;;;15.80;99.90;;;;;;5039897;28;20692;-80
2022/04/06 16:54:12;;;;;;;6.53;2.37;;;15.70;99.90;;;;;;5040567;28;20488;-81
2022/04/06 16:56:40;;;;;;;4.97;2.70;;;15.70;99.90;;;;;;5038980;28;20525;-81
2022/04/06 16:59:07;;;;;;;3.90;2.60;;;15.60;99.90;;;;;;5034580;28;20455;-78
2022/04/06 17:01:35;;;;;;;4.67;3.10;;;15.60;99.90;;;;;;5033648;28;20474;-77
2022/04/06 17:04:04;;;;;;;6.40;3.33;;;15.50;99.90;;;;;;5031204;28;20895;-80
2022/04/06 17:06:32;;;;;;;7.97;5.00;;;15.40;99.90;;;;;;5040745;28;20464;-80
2022/04/06 17:08:59;;;;;;;9.03;4.80;;;15.30;99.90;;;;;;5039873;28;20519;-79
2022/04/06 17:11:26;;;;;;;5.47;4.10;;;15.20;99.90;;;;;;5040679;28;20533;-80
2022/04/06 17:13:53;;;;;;;4.23;3.60;;;15.20;99.90;;;;;;5040387;28;20478;-79
2022/04/06 17:16:23;;;;;;;7.17;4.00;;;15.10;99.90;;;;;;5039017;28;20456;-80
2022/04/06 17:18:50;;;;;;;3.27;2.90;;;15.10;99.90;;;;;;5042665;28;20457;-80
2022/04/06 17:21:19;;;;;;;3.53;2.90;;;15.00;99.90;;;;;;5041352;28;20549;-80
2022/04/06 17:23:46;;;;;;;4.10;3.23;;;14.90;99.90;;;;;;5043659;28;20485;-79
2022/04/06 17:26:13;;;;;;;7.10;3.60;;;14.90;99.90;;;;;;5042460;28;20493;-79
2022/04/06 17:28:40;;;;;;;9.90;4.10;;;14.90;99.90;;;;;;5042250;28;20461;-79
2022/04/06 17:31:08;;;;;;;7.67;4.00;;;14.70;99.90;;;;;;5021604;28;20475;-79
2022/04/06 17:33:35;;;;;;;5.30;4.00;;;14.70;99.90;;;;;;5024523;28;20462;-79
2022/04/06 17:36:02;;;;;;;6.50;3.73;;;14.60;99.90;;;;;;5040321;28;20449;-81
2022/04/06 17:38:31;;;;;;;5.60;3.93;;;14.50;99.90;;;;;;5040379;28;20521;-80
2022/04/06 17:40:57;;;;;;;5.13;3.60;;;14.50;99.90;;;;;;5034915;28;20475;-70
2022/04/06 17:43:24;;;;;;;7.37;4.00;;;14.40;99.90;;;;;;5025851;28;20544;-70
2022/04/06 17:45:51;;;;;;;4.93;3.60;;;14.40;99.90;;;;;;5024045;28;20580;-70
2022/04/06 17:48:18;;;;;;;4.43;3.37;;;14.30;99.90;;;;;;5026392;28;20577;-79
2022/04/06 17:50:49;;;;;;;5.87;3.33;;;14.30;99.90;;;;;;5035805;28;20478;-80
2022/04/06 17:53:16;;;;;;;7.73;3.60;;;14.30;99.90;;;;;;5038603;28;20822;-80
2022/04/06 17:55:44;;;;;;;8.50;3.73;;;14.10;99.90;;;;;;5032890;28;20477;-80
2022/04/06 17:58:11;;;;;;;4.87;3.17;;;14.00;99.90;;;;;;5037029;28;20482;-79
2022/04/06 18:00:38;;;;;;;7.07;3.60;;;14.00;99.90;;;;;;5038459;28;20493;-81
2022/04/06 18:03:05;;;;;;;7.57;5.17;;;14.00;99.90;;;;;;5041438;28;20493;-79
2022/04/06 18:05:32;;;;;;;41.70;26.00;;;13.90;99.90;;;;;;5042793;28;20496;-80
2022/04/06 18:07:59;;;;;;;480.45;281.55;;;13.80;99.90;;;;;;5042986;28;20442;-80
2022/04/06 18:13:40;;;;;;;45.13;36.37;;;13.80;99.90;;;;;;5043206;28;20219;-82
2022/04/06 18:16:00;;;;;;;3.73;3.30;;;13.80;99.90;;;;;;5046288;28;20564;-80